createdAt,value
2019-03-30T00:00:58.456Z,0.00
2019-03-30T00:01:58.450Z,0.00
2019-03-30T00:02:58.441Z,0.00
2019-03-30T00:03:58.430Z,0.00
2019-03-30T00:04:58.423Z,0.00
2019-03-30T00:05:58.412Z,0.00
2019-03-30T00:06:58.404Z,0.00
2019-03-30T00:07:58.404Z,0.00
2019-03-30T00:08:58.397Z,0.00
2019-03-30T00:09:58.383Z,0.00
2019-03-30T00:10:58.377Z,0.00
2019-03-30T00:11:58.372Z,0.00
2019-03-30T00:12:58.367Z,0.00
2019-03-30T00:13:58.362Z,0.00
2019-03-30T00:14:58.353Z,0.00
2019-03-30T00:15:58.350Z,0.00
2019-03-30T00:16:58.339Z,0.00
2019-03-30T00:17:58.327Z,0.00
2019-03-30T00:18:58.321Z,0.00
2019-03-30T00:19:58.317Z,0.00
2019-03-30T00:20:58.313Z,0.00
2019-03-30T00:21:58.301Z,0.00
2019-03-30T00:22:58.290Z,0.00
2019-03-30T00:23:58.282Z,0.00
2019-03-30T00:24:58.272Z,0.00
2019-03-30T00:25:58.270Z,0.00
2019-03-30T00:26:58.262Z,0.00
2019-03-30T00:27:58.251Z,0.00
2019-03-30T00:28:58.243Z,0.00
2019-03-30T00:29:58.241Z,0.00
2019-03-30T00:30:58.238Z,0.00
2019-03-30T00:31:58.227Z,0.00
2019-03-30T00:32:58.219Z,0.00
2019-03-30T00:33:58.215Z,0.00
2019-03-30T00:34:58.204Z,0.00
2019-03-30T00:35:58.194Z,0.00
2019-03-30T00:36:58.186Z,0.00
2019-03-30T00:37:58.176Z,0.00
2019-03-30T00:38:58.168Z,0.00
2019-03-30T00:39:58.165Z,0.00
2019-03-30T00:40:58.159Z,0.00
2019-03-30T00:41:58.148Z,0.00
2019-03-30T00:42:58.136Z,0.00
2019-03-30T00:43:58.134Z,0.00
2019-03-30T00:44:58.127Z,0.00
2019-03-30T00:45:58.122Z,0.00
2019-03-30T00:46:58.113Z,0.00
2019-03-30T00:47:58.102Z,0.00
2019-03-30T00:48:58.094Z,0.00
2019-03-30T00:49:58.084Z,0.00
2019-03-30T00:50:58.075Z,0.00
2019-03-30T00:51:58.076Z,0.00
2019-03-30T00:52:58.068Z,0.00
2019-03-30T00:53:58.062Z,0.00
2019-03-30T00:54:58.053Z,0.00
2019-03-30T00:55:58.040Z,0.00
2019-03-30T00:56:58.036Z,0.00
2019-03-30T00:57:58.034Z,0.00
2019-03-30T00:58:58.031Z,0.00
2019-03-30T00:59:58.011Z,0.00
2019-03-30T01:00:58.003Z,0.00
2019-03-30T01:01:57.992Z,0.00
2019-03-30T01:02:57.985Z,0.00
2019-03-30T01:03:57.982Z,0.00
2019-03-30T01:04:57.976Z,0.00
2019-03-30T01:05:58.346Z,0.00
2019-03-30T01:06:57.958Z,0.00
2019-03-30T01:07:57.944Z,0.00
2019-03-30T01:08:57.943Z,0.00
2019-03-30T01:09:57.932Z,0.00
2019-03-30T01:10:57.923Z,0.00
2019-03-30T01:11:57.920Z,0.00
2019-03-30T01:12:57.912Z,0.00
2019-03-30T01:13:57.901Z,0.00
2019-03-30T01:14:57.892Z,0.00
2019-03-30T01:15:57.889Z,0.00
2019-03-30T01:16:57.881Z,0.00
2019-03-30T01:17:57.871Z,0.00
2019-03-30T01:18:57.861Z,0.00
2019-03-30T01:20:03.081Z,0.00
2019-03-30T01:20:57.842Z,0.00
2019-03-30T01:21:57.834Z,0.00
2019-03-30T01:22:57.827Z,0.00
2019-03-30T01:23:57.822Z,0.00
2019-03-30T01:24:57.815Z,0.00
2019-03-30T01:25:57.810Z,0.00
2019-03-30T01:26:57.800Z,0.00
2019-03-30T01:27:57.789Z,0.00
2019-03-30T01:28:57.780Z,0.00
2019-03-30T01:29:57.777Z,0.00
2019-03-30T01:30:57.769Z,0.00
2019-03-30T01:31:57.768Z,0.00
2019-03-30T01:32:57.749Z,0.00
2019-03-30T01:33:57.742Z,0.00
2019-03-30T01:34:57.729Z,0.00
2019-03-30T01:35:57.725Z,0.00
2019-03-30T01:36:57.718Z,0.00
2019-03-30T01:37:57.711Z,0.00
2019-03-30T01:38:57.700Z,0.00
2019-03-30T01:39:57.689Z,0.00
2019-03-30T01:40:57.681Z,0.00
2019-03-30T01:41:57.675Z,0.00
2019-03-30T01:42:57.668Z,0.00
2019-03-30T01:43:57.663Z,0.00
2019-03-30T01:44:57.656Z,0.00
2019-03-30T01:45:57.642Z,0.00
2019-03-30T01:46:57.633Z,0.00
2019-03-30T01:47:57.630Z,0.00
2019-03-30T01:48:57.624Z,0.00
2019-03-30T01:49:57.613Z,0.00
2019-03-30T01:50:57.606Z,0.00
2019-03-30T01:51:57.592Z,0.00
2019-03-30T01:52:57.588Z,0.00
2019-03-30T01:53:57.585Z,0.00
2019-03-30T01:54:57.575Z,0.00
2019-03-30T01:55:57.565Z,0.00
2019-03-30T01:56:57.555Z,0.00
2019-03-30T01:57:57.545Z,0.00
2019-03-30T01:58:57.537Z,0.00
2019-03-30T01:59:57.535Z,0.00
2019-03-30T02:00:57.526Z,0.00
2019-03-30T02:01:57.514Z,0.00
2019-03-30T02:02:57.505Z,0.00
2019-03-30T02:03:57.503Z,0.00
2019-03-30T02:04:57.495Z,0.00
2019-03-30T02:05:57.489Z,0.00
2019-03-30T02:06:57.481Z,0.00
2019-03-30T02:07:57.470Z,0.00
2019-03-30T02:08:57.462Z,0.00
2019-03-30T02:09:57.454Z,0.00
2019-03-30T02:10:57.448Z,0.00
2019-03-30T02:11:57.442Z,0.00
2019-03-30T02:12:57.435Z,0.00
2019-03-30T02:13:57.426Z,0.00
2019-03-30T02:14:57.417Z,0.00
2019-03-30T02:15:57.406Z,0.00
2019-03-30T02:16:57.397Z,0.00
2019-03-30T02:17:57.394Z,0.00
2019-03-30T02:18:57.386Z,0.00
2019-03-30T02:19:57.373Z,0.00
2019-03-30T02:20:57.368Z,0.00
2019-03-30T02:21:57.364Z,0.00
2019-03-30T02:22:57.353Z,0.00
2019-03-30T02:23:57.350Z,0.00
2019-03-30T02:24:57.342Z,0.00
2019-03-30T02:25:57.403Z,0.00
2019-03-30T02:26:57.326Z,0.00
2019-03-30T02:27:57.316Z,0.00
2019-03-30T02:28:57.314Z,0.00
2019-03-30T02:29:57.298Z,0.00
2019-03-30T02:30:57.289Z,0.00
2019-03-30T02:31:57.287Z,0.00
2019-03-30T02:32:57.284Z,0.00
2019-03-30T02:33:57.279Z,0.00
2019-03-30T02:34:57.261Z,0.00
2019-03-30T02:35:57.259Z,0.00
2019-03-30T02:36:57.250Z,0.00
2019-03-30T02:37:57.246Z,0.00
2019-03-30T02:38:57.236Z,0.00
2019-03-30T02:39:57.225Z,0.00
2019-03-30T02:40:57.217Z,0.00
2019-03-30T02:41:57.214Z,0.00
2019-03-30T02:42:57.202Z,0.00
2019-03-30T02:43:57.203Z,0.00
2019-03-30T02:44:57.197Z,0.00
2019-03-30T02:45:57.183Z,0.00
2019-03-30T02:46:57.174Z,0.00
2019-03-30T02:47:57.159Z,0.00
2019-03-30T02:48:57.160Z,0.00
2019-03-30T02:49:57.152Z,0.00
2019-03-30T02:50:57.142Z,0.00
2019-03-30T02:51:57.133Z,0.00
2019-03-30T02:52:57.124Z,0.00
2019-03-30T02:53:57.121Z,0.00
2019-03-30T02:54:57.119Z,0.00
2019-03-30T02:55:57.106Z,0.00
2019-03-30T02:56:57.099Z,0.00
2019-03-30T02:57:57.091Z,0.00
2019-03-30T02:58:57.080Z,0.00
2019-03-30T02:59:57.071Z,0.00
2019-03-30T03:00:57.068Z,0.00
2019-03-30T03:01:57.056Z,0.00
2019-03-30T03:02:57.049Z,0.00
2019-03-30T03:03:57.045Z,0.00
2019-03-30T03:04:57.039Z,0.00
2019-03-30T03:05:57.031Z,0.00
2019-03-30T03:06:57.017Z,0.00
2019-03-30T03:07:57.014Z,0.00
2019-03-30T03:08:57.012Z,0.00
2019-03-30T03:09:56.998Z,0.00
2019-03-30T03:10:56.990Z,0.00
2019-03-30T03:11:56.997Z,0.00
2019-03-30T03:12:56.972Z,0.00
2019-03-30T03:13:56.961Z,0.00
2019-03-30T03:14:56.958Z,0.00
2019-03-30T03:15:56.959Z,0.00
2019-03-30T03:16:56.944Z,0.00
2019-03-30T03:17:56.940Z,0.00
2019-03-30T03:18:56.930Z,0.00
2019-03-30T03:19:56.920Z,0.00
2019-03-30T03:21:07.390Z,0.00
2019-03-30T03:21:56.917Z,0.00
2019-03-30T03:22:56.898Z,0.00
2019-03-30T03:23:56.920Z,0.00
2019-03-30T03:24:56.880Z,0.00
2019-03-30T03:25:56.870Z,0.00
2019-03-30T03:26:56.867Z,0.00
2019-03-30T03:27:56.873Z,0.00
2019-03-30T03:28:56.852Z,0.00
2019-03-30T03:29:56.844Z,0.00
2019-03-30T03:30:56.840Z,0.00
2019-03-30T03:31:56.823Z,0.00
2019-03-30T03:32:56.815Z,0.00
2019-03-30T03:33:56.811Z,0.00
2019-03-30T03:34:56.813Z,0.00
2019-03-30T03:35:56.802Z,0.00
2019-03-30T03:36:56.792Z,0.00
2019-03-30T03:37:56.784Z,0.00
2019-03-30T03:38:56.773Z,0.00
2019-03-30T03:39:56.769Z,0.00
2019-03-30T03:40:56.762Z,0.00
2019-03-30T03:41:56.754Z,0.00
2019-03-30T03:42:56.742Z,0.00
2019-03-30T03:43:56.732Z,0.00
2019-03-30T03:44:56.731Z,0.00
2019-03-30T03:45:56.717Z,0.00
2019-03-30T03:46:56.711Z,0.00
2019-03-30T03:47:56.709Z,0.00
2019-03-30T03:48:56.708Z,0.00
2019-03-30T03:49:56.698Z,0.00
2019-03-30T03:50:56.686Z,0.00
2019-03-30T03:51:56.671Z,0.00
2019-03-30T03:52:56.668Z,0.00
2019-03-30T03:53:56.660Z,0.00
2019-03-30T03:54:56.655Z,0.00
2019-03-30T03:55:56.641Z,0.00
2019-03-30T03:56:56.691Z,0.00
2019-03-30T03:57:56.621Z,0.00
2019-03-30T03:58:56.613Z,0.00
2019-03-30T03:59:56.608Z,0.00
2019-03-30T04:00:56.603Z,0.00
2019-03-30T04:01:56.596Z,0.00
2019-03-30T04:02:56.591Z,0.00
2019-03-30T04:03:56.576Z,0.00
2019-03-30T04:04:56.569Z,0.00
2019-03-30T04:05:56.568Z,0.00
2019-03-30T04:06:56.550Z,0.00
2019-03-30T04:07:56.551Z,0.00
2019-03-30T04:08:56.540Z,0.00
2019-03-30T04:09:56.526Z,0.00
2019-03-30T04:10:56.524Z,0.00
2019-03-30T04:11:56.516Z,0.00
2019-03-30T04:12:56.510Z,0.00
2019-03-30T04:13:56.506Z,0.00
2019-03-30T04:14:56.497Z,0.00
2019-03-30T04:15:56.484Z,0.00
2019-03-30T04:16:56.476Z,0.00
2019-03-30T04:17:56.467Z,0.00
2019-03-30T04:18:56.458Z,0.00
2019-03-30T04:19:56.459Z,0.00
2019-03-30T04:20:56.450Z,0.00
2019-03-30T04:21:56.436Z,0.00
2019-03-30T04:22:56.434Z,0.00
2019-03-30T04:23:56.416Z,0.00
2019-03-30T04:24:56.409Z,0.00
2019-03-30T04:25:56.405Z,0.00
2019-03-30T04:26:56.404Z,0.00
2019-03-30T04:27:56.386Z,0.00
2019-03-30T04:28:56.388Z,0.00
2019-03-30T04:29:56.372Z,0.00
2019-03-30T04:30:56.363Z,0.00
2019-03-30T04:31:56.362Z,0.00
2019-03-30T04:32:56.355Z,0.00
2019-03-30T04:33:56.347Z,0.00
2019-03-30T04:34:56.338Z,0.00
2019-03-30T04:35:56.326Z,0.00
2019-03-30T04:36:56.327Z,0.00
2019-03-30T04:37:56.308Z,0.00
2019-03-30T04:38:56.308Z,0.00
2019-03-30T04:39:56.297Z,0.00
2019-03-30T04:40:56.289Z,0.00
2019-03-30T04:41:56.276Z,0.00
2019-03-30T04:42:56.266Z,0.00
2019-03-30T04:43:56.267Z,0.00
2019-03-30T04:44:56.255Z,0.00
2019-03-30T04:45:56.251Z,0.00
2019-03-30T04:46:56.242Z,0.00
2019-03-30T04:47:56.231Z,0.00
2019-03-30T04:48:56.226Z,0.00
2019-03-30T04:49:56.215Z,0.00
2019-03-30T04:50:56.208Z,0.00
2019-03-30T04:51:57.632Z,0.00
2019-03-30T04:52:56.195Z,0.00
2019-03-30T04:53:56.185Z,0.00
2019-03-30T04:54:56.176Z,0.00
2019-03-30T04:55:56.164Z,0.00
2019-03-30T04:56:56.162Z,0.00
2019-03-30T04:57:57.747Z,0.00
2019-03-30T04:58:56.145Z,0.00
2019-03-30T04:59:56.133Z,0.00
2019-03-30T05:00:56.127Z,0.00
2019-03-30T05:01:56.121Z,0.00
2019-03-30T05:02:56.197Z,0.00
2019-03-30T05:03:56.113Z,0.00
2019-03-30T05:04:56.103Z,5.63
2019-03-30T05:05:56.095Z,5.63
2019-03-30T05:06:56.083Z,5.63
2019-03-30T05:07:56.069Z,5.63
2019-03-30T05:08:56.064Z,5.63
2019-03-30T05:09:56.059Z,5.63
2019-03-30T05:10:56.054Z,11.25
2019-03-30T05:11:56.045Z,11.25
2019-03-30T05:12:56.037Z,11.25
2019-03-30T05:13:56.025Z,11.25
2019-03-30T05:14:56.017Z,16.88
2019-03-30T05:15:56.014Z,16.88
2019-03-30T05:16:56.007Z,16.88
2019-03-30T05:17:55.996Z,22.50
2019-03-30T05:18:55.987Z,22.50
2019-03-30T05:19:55.976Z,28.13
2019-03-30T05:20:55.966Z,28.13
2019-03-30T05:21:55.964Z,33.75
2019-03-30T05:22:55.951Z,33.75
2019-03-30T05:23:55.948Z,39.38
2019-03-30T05:24:55.940Z,39.38
2019-03-30T05:25:55.936Z,45.00
2019-03-30T05:26:55.927Z,50.63
2019-03-30T05:27:55.914Z,50.63
2019-03-30T05:28:55.907Z,56.25
2019-03-30T05:29:55.906Z,56.25
2019-03-30T05:30:55.895Z,61.88
2019-03-30T05:31:55.885Z,61.88
2019-03-30T05:33:05.512Z,67.50
2019-03-30T05:33:55.874Z,73.13
2019-03-30T05:34:55.858Z,78.75
2019-03-30T05:35:55.855Z,90.00
2019-03-30T05:36:55.849Z,101.25
2019-03-30T05:37:55.841Z,118.13
2019-03-30T05:38:55.832Z,135.00
2019-03-30T05:39:55.820Z,146.25
2019-03-30T05:40:55.811Z,157.50
2019-03-30T05:41:55.809Z,168.75
2019-03-30T05:42:55.800Z,180.00
2019-03-30T05:43:55.796Z,196.88
2019-03-30T05:44:57.795Z,202.50
2019-03-30T05:45:55.780Z,213.75
2019-03-30T05:46:55.770Z,219.38
2019-03-30T05:47:55.767Z,236.25
2019-03-30T05:48:55.760Z,247.50
2019-03-30T05:49:55.751Z,258.75
2019-03-30T05:50:55.826Z,270.00
2019-03-30T05:51:55.734Z,270.00
2019-03-30T05:52:55.728Z,225.00
2019-03-30T05:53:55.720Z,180.00
2019-03-30T05:54:55.714Z,191.25
2019-03-30T05:55:55.713Z,281.25
2019-03-30T05:56:55.708Z,298.13
2019-03-30T05:57:55.704Z,309.38
2019-03-30T05:58:55.696Z,348.75
2019-03-30T05:59:56.277Z,382.50
2019-03-30T06:00:55.680Z,410.63
2019-03-30T06:01:55.679Z,410.63
2019-03-30T06:02:55.673Z,421.88
2019-03-30T06:03:55.663Z,433.13
2019-03-30T06:04:55.658Z,438.75
2019-03-30T06:05:55.651Z,438.75
2019-03-30T06:06:55.651Z,450.00
2019-03-30T06:07:55.645Z,466.88
2019-03-30T06:08:55.639Z,472.50
2019-03-30T06:09:55.636Z,478.13
2019-03-30T06:10:55.632Z,511.88
2019-03-30T06:11:55.623Z,545.63
2019-03-30T06:12:55.617Z,579.38
2019-03-30T06:13:55.617Z,596.25
2019-03-30T06:14:55.611Z,596.25
2019-03-30T06:15:55.611Z,635.63
2019-03-30T06:16:55.606Z,641.25
2019-03-30T06:17:55.600Z,641.25
2019-03-30T06:18:55.596Z,680.63
2019-03-30T06:19:55.597Z,703.13
2019-03-30T06:20:55.594Z,736.88
2019-03-30T06:21:55.589Z,759.38
2019-03-30T06:22:55.585Z,804.38
2019-03-30T06:23:55.579Z,832.50
2019-03-30T06:24:55.577Z,860.63
2019-03-30T06:25:55.576Z,866.25
2019-03-30T06:26:55.572Z,877.50
2019-03-30T06:27:55.576Z,883.13
2019-03-30T06:28:55.573Z,888.75
2019-03-30T06:29:55.573Z,894.38
2019-03-30T06:30:55.572Z,911.25
2019-03-30T06:31:55.567Z,928.13
2019-03-30T06:32:55.568Z,939.38
2019-03-30T06:33:55.568Z,950.63
2019-03-30T06:34:55.565Z,956.25
2019-03-30T06:35:55.562Z,973.13
2019-03-30T06:36:55.560Z,961.88
2019-03-30T06:37:55.558Z,990.00
2019-03-30T06:38:55.558Z,1001.25
2019-03-30T06:39:55.559Z,1012.50
2019-03-30T06:40:55.560Z,1029.38
2019-03-30T06:41:55.560Z,1057.50
2019-03-30T06:42:55.633Z,1074.38
2019-03-30T06:43:55.554Z,1091.25
2019-03-30T06:44:55.554Z,1096.88
2019-03-30T06:45:55.555Z,1108.13
2019-03-30T06:46:55.555Z,1119.38
2019-03-30T06:47:55.559Z,1136.25
2019-03-30T06:48:55.560Z,1147.50
2019-03-30T06:49:55.557Z,1153.13
2019-03-30T06:50:55.556Z,1158.75
2019-03-30T06:51:55.562Z,1170.00
2019-03-30T06:52:58.107Z,1181.25
2019-03-30T06:53:55.560Z,1198.13
2019-03-30T06:54:55.561Z,1203.75
2019-03-30T06:55:55.555Z,1215.00
2019-03-30T06:56:55.557Z,1220.63
2019-03-30T06:57:55.557Z,1231.88
2019-03-30T06:58:55.558Z,1243.13
2019-03-30T06:59:55.563Z,1260.00
2019-03-30T07:00:55.565Z,1276.88
2019-03-30T07:01:55.568Z,1293.75
2019-03-30T07:02:55.568Z,1310.63
2019-03-30T07:03:55.567Z,1310.63
2019-03-30T07:04:55.567Z,1321.88
2019-03-30T07:05:55.576Z,1333.13
2019-03-30T07:06:55.574Z,1344.38
2019-03-30T07:07:55.571Z,1350.00
2019-03-30T07:08:55.574Z,1355.63
2019-03-30T07:09:55.572Z,1361.25
2019-03-30T07:10:55.572Z,1344.38
2019-03-30T07:11:55.580Z,1361.25
2019-03-30T07:12:55.590Z,1383.75
2019-03-30T07:13:55.588Z,1383.75
2019-03-30T07:14:55.587Z,1406.25
2019-03-30T07:15:55.582Z,1411.88
2019-03-30T07:16:55.641Z,1411.88
2019-03-30T07:17:55.586Z,1423.13
2019-03-30T07:18:55.584Z,1428.75
2019-03-30T07:19:55.593Z,1451.25
2019-03-30T07:20:55.592Z,1456.88
2019-03-30T07:21:55.604Z,1468.13
2019-03-30T07:22:55.592Z,1473.75
2019-03-30T07:23:55.602Z,1485.00
2019-03-30T07:24:55.602Z,1513.13
2019-03-30T07:25:55.605Z,1513.13
2019-03-30T07:26:55.605Z,1524.38
2019-03-30T07:27:55.605Z,1524.38
2019-03-30T07:28:55.609Z,1535.63
2019-03-30T07:29:55.611Z,1546.88
2019-03-30T07:30:55.612Z,1558.13
2019-03-30T07:31:55.619Z,1563.75
2019-03-30T07:32:55.620Z,1530.00
2019-03-30T07:33:55.621Z,1558.13
2019-03-30T07:34:55.626Z,1546.88
2019-03-30T07:35:55.623Z,1586.25
2019-03-30T07:36:55.628Z,1614.38
2019-03-30T07:37:55.633Z,1631.25
2019-03-30T07:38:55.635Z,1636.88
2019-03-30T07:39:55.635Z,1648.13
2019-03-30T07:40:55.640Z,1659.38
2019-03-30T07:41:55.644Z,1670.63
2019-03-30T07:42:55.648Z,1676.25
2019-03-30T07:43:55.655Z,1687.50
2019-03-30T07:44:55.661Z,1676.25
2019-03-30T07:45:55.665Z,1693.13
2019-03-30T07:46:55.667Z,1698.75
2019-03-30T07:47:55.668Z,1710.00
2019-03-30T07:48:55.671Z,1164.38
2019-03-30T07:49:55.673Z,1215.00
2019-03-30T07:50:55.678Z,1231.88
2019-03-30T07:51:55.689Z,1260.00
2019-03-30T07:52:55.691Z,1276.88
2019-03-30T07:53:55.694Z,1288.13
2019-03-30T07:54:55.696Z,1305.00
2019-03-30T07:56:07.669Z,1305.00
2019-03-30T07:57:04.974Z,1305.00
2019-03-30T07:57:55.730Z,1327.50
2019-03-30T07:58:55.728Z,1350.00
2019-03-30T07:59:55.721Z,1344.38
2019-03-30T08:00:55.727Z,1355.63
2019-03-30T08:01:55.730Z,1366.88
2019-03-30T08:02:55.737Z,1378.13
2019-03-30T08:03:55.748Z,1383.75
2019-03-30T08:04:55.750Z,1378.13
2019-03-30T08:05:55.753Z,1383.75
2019-03-30T08:06:55.756Z,1411.88
2019-03-30T08:07:55.764Z,1423.13
2019-03-30T08:08:55.764Z,1434.38
2019-03-30T08:09:55.776Z,1451.25
2019-03-30T08:10:55.781Z,1456.88
2019-03-30T08:11:55.784Z,1445.63
2019-03-30T08:12:55.801Z,1462.50
2019-03-30T08:13:55.798Z,1501.88
2019-03-30T08:14:55.804Z,1501.88
2019-03-30T08:15:55.815Z,1518.75
2019-03-30T08:16:55.820Z,1535.63
2019-03-30T08:17:55.825Z,1546.88
2019-03-30T08:18:55.832Z,1530.00
2019-03-30T08:19:55.833Z,1546.88
2019-03-30T08:20:55.843Z,1552.50
2019-03-30T08:21:55.850Z,1563.75
2019-03-30T08:22:55.858Z,1569.38
2019-03-30T08:23:55.868Z,1569.38
2019-03-30T08:24:55.876Z,1597.50
2019-03-30T08:25:55.880Z,1608.75
2019-03-30T08:26:55.885Z,1614.38
2019-03-30T08:27:55.899Z,1653.75
2019-03-30T08:28:55.904Z,1687.50
2019-03-30T08:29:55.910Z,1721.25
2019-03-30T08:30:55.917Z,1755.00
2019-03-30T08:31:55.921Z,1794.38
2019-03-30T08:32:55.931Z,1850.63
2019-03-30T08:33:55.937Z,1912.50
2019-03-30T08:34:55.945Z,1996.88
2019-03-30T08:35:55.958Z,2115.00
2019-03-30T08:36:59.126Z,2250.00
2019-03-30T08:37:55.976Z,2463.75
2019-03-30T08:38:55.985Z,2778.75
2019-03-30T08:39:55.990Z,3009.38
2019-03-30T08:40:55.999Z,3150.00
2019-03-30T08:41:56.010Z,3161.25
2019-03-30T08:42:56.022Z,3144.38
2019-03-30T08:43:56.024Z,3161.25
2019-03-30T08:44:56.042Z,3341.25
2019-03-30T08:45:56.042Z,3498.75
2019-03-30T08:46:56.047Z,3571.88
2019-03-30T08:47:56.063Z,3628.13
2019-03-30T08:48:56.071Z,3656.25
2019-03-30T08:49:56.081Z,3791.25
2019-03-30T08:50:56.092Z,3870.00
2019-03-30T08:51:56.094Z,4083.75
2019-03-30T08:52:56.109Z,4252.50
2019-03-30T08:53:56.116Z,4477.50
2019-03-30T08:54:56.125Z,4561.88
2019-03-30T08:55:56.147Z,4539.38
2019-03-30T08:56:56.151Z,4826.25
2019-03-30T08:57:56.155Z,4781.25
2019-03-30T08:58:56.164Z,4685.63
2019-03-30T08:59:56.178Z,4893.75
2019-03-30T09:00:56.189Z,4865.63
2019-03-30T09:01:56.196Z,4888.13
2019-03-30T09:02:56.206Z,4730.63
2019-03-30T09:03:56.213Z,4533.75
2019-03-30T09:04:56.224Z,4426.88
2019-03-30T09:05:56.238Z,4393.13
2019-03-30T09:06:56.245Z,4145.63
2019-03-30T09:07:56.262Z,4038.75
2019-03-30T09:08:56.275Z,4078.13
2019-03-30T09:09:56.285Z,4005.00
2019-03-30T09:10:56.302Z,3796.88
2019-03-30T09:11:56.307Z,3808.13
2019-03-30T09:12:56.325Z,3892.50
2019-03-30T09:13:56.337Z,3903.75
2019-03-30T09:14:56.342Z,3785.63
2019-03-30T09:15:56.351Z,3650.63
2019-03-30T09:16:56.362Z,3481.88
2019-03-30T09:17:56.381Z,3369.38
2019-03-30T09:18:56.384Z,3363.75
2019-03-30T09:19:56.401Z,3408.75
2019-03-30T09:20:56.416Z,3414.38
2019-03-30T09:21:56.428Z,3403.13
2019-03-30T09:22:56.440Z,3391.88
2019-03-30T09:24:08.840Z,3335.63
2019-03-30T09:24:56.461Z,3358.13
2019-03-30T09:25:56.470Z,3330.00
2019-03-30T09:26:56.488Z,3301.88
2019-03-30T09:27:56.499Z,3330.00
2019-03-30T09:28:56.515Z,3363.75
2019-03-30T09:29:56.521Z,3414.38
2019-03-30T09:30:56.531Z,3307.50
2019-03-30T09:31:56.632Z,3273.75
2019-03-30T09:32:56.568Z,3403.13
2019-03-30T09:33:56.577Z,3504.38
2019-03-30T09:34:56.590Z,3448.13
2019-03-30T09:35:56.599Z,3346.88
2019-03-30T09:36:56.620Z,3346.88
2019-03-30T09:37:56.630Z,3442.50
2019-03-30T09:38:56.639Z,3459.38
2019-03-30T09:39:56.655Z,3442.50
2019-03-30T09:40:56.667Z,3448.13
2019-03-30T09:41:56.678Z,3403.13
2019-03-30T09:42:56.691Z,3318.75
2019-03-30T09:43:56.699Z,3352.50
2019-03-30T09:44:56.713Z,3493.13
2019-03-30T09:45:56.731Z,3706.88
2019-03-30T09:46:56.744Z,3768.75
2019-03-30T09:47:56.753Z,3718.13
2019-03-30T09:48:56.767Z,3746.25
2019-03-30T09:49:56.783Z,3774.38
2019-03-30T09:50:56.795Z,3864.38
2019-03-30T09:51:56.813Z,3853.13
2019-03-30T09:52:56.827Z,3898.13
2019-03-30T09:53:56.840Z,3993.75
2019-03-30T09:54:56.854Z,3960.00
2019-03-30T09:55:56.876Z,3825.00
2019-03-30T09:56:56.879Z,3757.50
2019-03-30T09:57:56.890Z,3639.38
2019-03-30T09:58:56.902Z,3555.00
2019-03-30T09:59:56.923Z,3414.38
2019-03-30T10:00:56.935Z,3375.00
2019-03-30T10:01:56.944Z,3363.75
2019-03-30T10:02:56.962Z,3420.00
2019-03-30T10:03:56.976Z,3341.25
2019-03-30T10:04:56.993Z,3318.75
2019-03-30T10:05:57.010Z,3189.38
2019-03-30T10:06:57.023Z,2981.25
2019-03-30T10:07:57.084Z,2795.63
2019-03-30T10:08:57.049Z,2784.38
2019-03-30T10:09:57.065Z,2778.75
2019-03-30T10:10:57.077Z,2767.50
2019-03-30T10:11:57.100Z,2767.50
2019-03-30T10:12:57.113Z,2750.63
2019-03-30T10:13:57.124Z,2773.13
2019-03-30T10:14:57.141Z,2767.50
2019-03-30T10:15:57.149Z,2761.88
2019-03-30T10:16:57.167Z,2728.13
2019-03-30T10:17:57.184Z,2756.25
2019-03-30T10:18:57.199Z,2711.25
2019-03-30T10:20:04.280Z,2700.00
2019-03-30T10:20:57.224Z,2694.38
2019-03-30T10:21:57.243Z,2649.38
2019-03-30T10:22:57.260Z,2660.63
2019-03-30T10:23:57.276Z,2655.00
2019-03-30T10:24:58.531Z,2655.00
2019-03-30T10:25:57.306Z,2626.88
2019-03-30T10:26:57.319Z,2587.50
2019-03-30T10:27:57.332Z,2559.38
2019-03-30T10:28:57.347Z,2486.25
2019-03-30T10:29:57.367Z,2531.25
2019-03-30T10:30:57.378Z,2486.25
2019-03-30T10:31:59.914Z,2458.13
2019-03-30T10:32:57.416Z,2430.00
2019-03-30T10:33:57.429Z,2396.25
2019-03-30T10:34:57.436Z,2413.13
2019-03-30T10:35:57.456Z,2413.13
2019-03-30T10:36:57.472Z,2638.13
2019-03-30T10:37:57.484Z,2643.75
2019-03-30T10:38:57.501Z,2390.63
2019-03-30T10:39:57.511Z,2317.50
2019-03-30T10:40:57.528Z,2261.25
2019-03-30T10:41:57.540Z,2210.63
2019-03-30T10:42:57.556Z,2193.75
2019-03-30T10:43:57.575Z,2171.25
2019-03-30T10:44:57.590Z,2165.63
2019-03-30T10:45:57.610Z,2193.75
2019-03-30T10:46:57.623Z,2266.88
2019-03-30T10:47:57.637Z,2581.88
2019-03-30T10:48:57.650Z,3009.38
2019-03-30T10:49:57.667Z,2953.13
2019-03-30T10:50:57.683Z,2981.25
2019-03-30T10:51:57.694Z,3335.63
2019-03-30T10:52:57.709Z,3538.13
2019-03-30T10:53:57.740Z,3420.00
2019-03-30T10:54:57.735Z,3268.13
2019-03-30T10:55:57.756Z,3712.50
2019-03-30T10:56:57.769Z,3886.88
2019-03-30T10:57:58.765Z,3791.25
2019-03-30T10:58:57.799Z,3695.63
2019-03-30T10:59:57.809Z,3870.00
2019-03-30T11:00:57.824Z,3920.63
2019-03-30T11:01:57.841Z,3729.38
2019-03-30T11:02:57.855Z,3549.38
2019-03-30T11:03:57.874Z,3549.38
2019-03-30T11:04:57.888Z,3780.00
2019-03-30T11:05:57.898Z,3802.50
2019-03-30T11:06:57.913Z,3684.38
2019-03-30T11:07:57.929Z,3701.25
2019-03-30T11:08:57.945Z,3751.88
2019-03-30T11:09:57.958Z,3543.75
2019-03-30T11:10:57.969Z,3459.38
2019-03-30T11:11:57.983Z,3549.38
2019-03-30T11:12:57.994Z,3532.50
2019-03-30T11:13:58.007Z,3431.25
2019-03-30T11:14:58.021Z,3493.13
2019-03-30T11:15:58.040Z,3498.75
2019-03-30T11:16:58.054Z,3870.00
2019-03-30T11:17:58.069Z,3718.13
2019-03-30T11:18:58.083Z,3487.50
2019-03-30T11:19:58.092Z,4055.63
2019-03-30T11:20:58.183Z,4179.38
2019-03-30T11:21:58.127Z,4066.88
2019-03-30T11:22:58.141Z,3999.38
2019-03-30T11:23:58.149Z,4156.88
2019-03-30T11:25:07.253Z,4061.25
2019-03-30T11:25:58.176Z,4033.13
2019-03-30T11:26:58.188Z,4207.50
2019-03-30T11:27:58.204Z,4156.88
2019-03-30T11:28:58.220Z,3960.00
2019-03-30T11:29:58.235Z,2345.63
2019-03-30T11:30:58.247Z,821.25
2019-03-30T11:31:58.257Z,663.75
2019-03-30T11:32:58.302Z,652.50
2019-03-30T11:33:58.278Z,646.88
2019-03-30T11:34:58.291Z,641.25
2019-03-30T11:35:58.308Z,568.13
2019-03-30T11:36:58.321Z,506.25
2019-03-30T11:37:58.331Z,635.63
2019-03-30T11:38:58.336Z,720.00
2019-03-30T11:39:58.352Z,720.00
2019-03-30T11:40:58.364Z,697.50
2019-03-30T11:41:58.375Z,663.75
2019-03-30T11:42:58.383Z,641.25
2019-03-30T11:43:58.387Z,635.63
2019-03-30T11:44:58.397Z,607.50
2019-03-30T11:45:58.405Z,579.38
2019-03-30T11:46:58.414Z,556.88
2019-03-30T11:47:58.425Z,585.00
2019-03-30T11:48:58.436Z,613.13
2019-03-30T11:49:58.438Z,613.13
2019-03-30T11:50:58.443Z,568.13
2019-03-30T11:51:58.446Z,556.88
2019-03-30T11:52:58.452Z,596.25
2019-03-30T11:53:58.464Z,630.00
2019-03-30T11:54:58.471Z,675.00
2019-03-30T11:55:58.471Z,691.88
2019-03-30T11:56:58.477Z,568.13
2019-03-30T11:57:58.488Z,528.75
2019-03-30T11:58:58.491Z,450.00
2019-03-30T11:59:58.503Z,466.88
2019-03-30T12:00:58.506Z,483.75
2019-03-30T12:01:58.510Z,624.38
2019-03-30T12:02:58.517Z,624.38
2019-03-30T12:03:58.516Z,613.13
2019-03-30T12:04:58.528Z,579.38
2019-03-30T12:05:58.523Z,545.63
2019-03-30T12:06:58.527Z,528.75
2019-03-30T12:07:58.536Z,511.88
2019-03-30T12:08:58.540Z,433.13
2019-03-30T12:09:58.541Z,427.50
2019-03-30T12:10:58.546Z,461.25
2019-03-30T12:11:58.552Z,545.63
2019-03-30T12:12:58.559Z,573.75
2019-03-30T12:13:58.565Z,517.50
2019-03-30T12:14:58.568Z,523.13
2019-03-30T12:15:58.567Z,466.88
2019-03-30T12:16:58.574Z,450.00
2019-03-30T12:17:58.575Z,450.00
2019-03-30T12:18:58.597Z,461.25
2019-03-30T12:19:58.586Z,438.75
2019-03-30T12:20:58.589Z,427.50
2019-03-30T12:21:58.658Z,455.63
2019-03-30T12:22:58.593Z,517.50
2019-03-30T12:23:58.591Z,517.50
2019-03-30T12:24:58.596Z,472.50
2019-03-30T12:25:58.607Z,450.00
2019-03-30T12:26:58.606Z,438.75
2019-03-30T12:27:58.610Z,427.50
2019-03-30T12:28:58.607Z,421.88
2019-03-30T12:29:58.614Z,416.25
2019-03-30T12:30:58.616Z,410.63
2019-03-30T12:31:58.623Z,393.75
2019-03-30T12:32:58.629Z,405.00
2019-03-30T12:33:58.629Z,371.25
2019-03-30T12:34:58.629Z,405.00
2019-03-30T12:35:58.628Z,405.00
2019-03-30T12:36:58.629Z,354.38
2019-03-30T12:37:58.634Z,410.63
2019-03-30T12:38:58.637Z,410.63
2019-03-30T12:39:58.643Z,399.38